Time;durP1;ratioP1;P1;durP2;ratioP2;P2;SDS_P1;SDS_P2;PMS_P1;PMS_P2;Temp;Humidity;BMP_temperature;BMP_pressure;BME280_temperature;BME280_humidity;BME280_pressure;Samples;Min_cycle;Max_cycle;Signal;HPM_P1;HPM_P2
2023/03/08 12:14:30;;;;;;;15.43;10.87;;;6.50;93.10;;;;;;21150965;27;20692;-78
2023/03/08 12:25:01;;;;;;;16.63;10.93;;;6.30;93.10;;;;;;21030591;28;20236;-76
2023/03/08 12:35:24;;;;;;;19.53;11.80;;;6.40;93.30;;;;;;21047868;28;20653;-73
2023/03/08 12:45:29;;;;;;;20.03;12.20;;;6.40;93.70;;;;;;20980569;28;20244;-75
2023/03/08 12:55:32;;;;;;;21.75;15.48;;;6.70;94.40;;;;;;21008756;28;20488;-72
2023/03/08 13:05:39;;;;;;;19.33;13.07;;;6.50;94.70;;;;;;20997419;28;20244;-76
2023/03/08 13:15:40;;;;;;;23.15;16.83;;;6.90;95.70;;;;;;20897258;28;20444;-76
2023/03/08 13:26:17;;;;;;;20.93;13.27;;;6.80;95.80;;;;;;20882736;28;20288;-79
2023/03/08 13:36:21;;;;;;;21.50;13.43;;;7.10;96.10;;;;;;20839971;28;20210;-77
2023/03/08 13:46:23;;;;;;;20.67;12.30;;;7.10;96.30;;;;;;20838693;28;20755;-74
2023/03/08 13:56:27;;;;;;;18.90;12.33;;;7.30;96.70;;;;;;20839218;28;20277;-70
2023/03/08 14:06:32;;;;;;;14.23;9.27;;;7.50;97.00;;;;;;20837917;28;20240;-71
2023/03/08 14:16:37;;;;;;;20.50;9.63;;;7.80;97.40;;;;;;20836315;28;20217;-69
2023/03/08 14:26:39;;;;;;;16.80;8.70;;;8.00;97.70;;;;;;20852048;28;20242;-68
2023/03/08 14:36:51;;;;;;;11.90;8.80;;;8.20;98.20;;;;;;20863593;28;20213;-76
2023/03/08 14:46:57;;;;;;;14.60;9.57;;;8.20;98.50;;;;;;20858079;28;20259;-73
2023/03/08 14:57:18;;;;;;;19.47;13.00;;;8.20;98.80;;;;;;20864113;28;20586;-75
2023/03/08 15:11:34;;;;;;;23.27;15.03;;;7.80;98.70;;;;;;21009078;28;20585;-68
2023/03/08 15:25:03;;;;;;;19.20;13.20;;;7.40;98.80;;;;;;21030138;28;20579;-69
2023/03/08 15:35:05;;;;;;;22.70;13.83;;;7.20;99.00;;;;;;20973764;28;20251;-69
2023/03/08 15:45:08;;;;;;;22.57;14.27;;;7.00;99.20;;;;;;20954296;28;20209;-71
2023/03/08 15:55:12;;;;;;;20.03;13.90;;;7.00;99.30;;;;;;21010997;28;20217;-67
2023/03/08 16:05:15;;;;;;;23.43;14.43;;;7.10;99.50;;;;;;21019809;28;20217;-74
2023/03/08 16:15:17;;;;;;;18.10;12.33;;;7.10;99.90;;;;;;21025604;28;20210;-66
2023/03/08 16:29:33;;;;;;;7.40;5.33;;;7.80;99.90;;;;;;21031911;28;20919;-68
2023/03/08 16:45:59;;;;;;;7.73;5.13;;;8.60;99.90;;;;;;21236951;27;20564;-72
2023/03/08 16:56:01;;;;;;;6.43;4.80;;;8.80;99.90;;;;;;21201248;27;20213;-70
2023/03/08 17:06:06;;;;;;;4.83;4.33;;;9.00;99.90;;;;;;21203678;27;20215;-72
2023/03/08 17:16:12;;;;;;;4.90;4.40;;;9.20;99.90;;;;;;21235732;27;20212;-69
2023/03/08 17:26:14;;;;;;;5.80;4.20;;;9.30;99.90;;;;;;21233105;27;20210;-69
2023/03/08 17:36:17;;;;;;;5.00;4.37;;;9.40;99.90;;;;;;21214047;27;20236;-67
2023/03/08 17:46:24;;;;;;;4.90;4.20;;;9.40;99.90;;;;;;21231437;27;20209;-68
2023/03/08 17:56:28;;;;;;;4.40;3.77;;;9.50;99.90;;;;;;21179436;28;20234;-69
2023/03/08 18:06:41;;;;;;;5.07;3.37;;;9.60;99.90;;;;;;21173954;28;20284;-73
2023/03/08 18:16:43;;;;;;;2.60;2.20;;;9.70;99.90;;;;;;21155230;28;20292;-71
2023/03/08 18:26:45;;;;;;;2.77;1.97;;;9.70;99.90;;;;;;21172303;28;20208;-73
2023/03/08 18:36:47;;;;;;;1.10;1.00;;;9.70;99.90;;;;;;21154202;28;20240;-72
2023/03/08 18:46:49;;;;;;;2.13;1.30;;;9.60;99.90;;;;;;21118812;28;20211;-74
2023/03/08 18:56:53;;;;;;;2.47;1.20;;;9.70;99.90;;;;;;21169327;28;20234;-73
2023/03/08 19:06:56;;;;;;;3.57;1.40;;;9.70;99.90;;;;;;21105495;28;20200;-74
2023/03/08 19:16:59;;;;;;;2.33;1.57;;;9.70;99.90;;;;;;21133849;28;20236;-71
2023/03/08 19:27:02;;;;;;;2.83;1.60;;;9.70;99.90;;;;;;21083149;28;20204;-72
2023/03/08 19:37:05;;;;;;;2.90;1.70;;;9.70;99.90;;;;;;21082363;28;20254;-78
2023/03/08 19:47:08;;;;;;;2.57;1.40;;;9.60;99.90;;;;;;21082395;28;20271;-70
2023/03/08 19:57:10;;;;;;;2.90;1.70;;;9.60;99.90;;;;;;21079241;28;20769;-72
2023/03/08 20:07:11;;;;;;;2.10;1.73;;;9.60;99.90;;;;;;21080170;28;20268;-74
2023/03/08 20:17:13;;;;;;;4.53;1.70;;;9.60;99.90;;;;;;21077081;28;20235;-77
2023/03/08 20:27:15;;;;;;;3.00;1.97;;;;;;;;;;21076551;28;20208;-73
2023/03/08 20:37:17;;;;;;;3.23;2.03;;;9.50;99.90;;;;;;21075925;28;21012;-72
2023/03/08 20:47:19;;;;;;;1.60;1.30;;;;;;;;;;21076373;28;20215;-74
2023/03/08 20:57:21;;;;;;;3.17;1.20;;;;;;;;;;21075389;28;20235;-74
2023/03/08 21:07:23;;;;;;;1.10;1.00;;;9.60;99.90;;;;;;21057280;28;20208;-72
2023/03/08 21:17:25;;;;;;;1.10;1.00;;;;;;;;;;21074846;28;20302;-74
2023/03/08 21:27:27;;;;;;;3.03;1.90;;;9.50;99.90;;;;;;21081418;28;20695;-74
2023/03/08 21:44:53;;;;;;;1.43;1.10;;;9.50;99.90;;;;;;21066392;27;20559;-75
2023/03/08 21:54:55;;;;;;;1.10;0.93;;;9.50;99.90;;;;;;21066354;28;20211;-77
2023/03/08 22:04:59;;;;;;;1.53;0.90;;;9.60;99.90;;;;;;21064962;28;20282;-75
2023/03/08 22:15:00;;;;;;;1.20;1.10;;;9.50;99.90;;;;;;21062989;28;20606;-73
2023/03/08 22:25:03;;;;;;;1.10;1.00;;;9.60;99.90;;;;;;21062130;28;20207;-74
2023/03/08 22:35:05;;;;;;;1.60;1.50;;;9.60;99.90;;;;;;21061605;28;20200;-75
2023/03/08 22:45:07;;;;;;;1.43;1.30;;;9.60;99.90;;;;;;21060629;28;20283;-76
2023/03/08 22:55:10;;;;;;;1.50;1.07;;;9.60;99.90;;;;;;21010114;28;20212;-77
2023/03/08 23:05:14;;;;;;;1.20;1.10;;;9.60;99.90;;;;;;21003844;28;20665;-74
2023/03/08 23:15:15;;;;;;;1.40;1.23;;;9.70;99.90;;;;;;21002519;28;20233;-75
2023/03/08 23:25:17;;;;;;;1.70;1.40;;;9.60;99.90;;;;;;21001649;28;20210;-74
2023/03/08 23:35:19;;;;;;;1.90;1.50;;;9.60;99.90;;;;;;21001322;28;20600;-74
2023/03/08 23:45:21;;;;;;;2.93;1.90;;;;;;;;;;21000717;28;20557;-74
2023/03/08 23:55:23;;;;;;;2.27;2.00;;;9.70;99.90;;;;;;20998629;28;20687;-77
